Time;durP1;ratioP1;P1;durP2;ratioP2;P2;SDS_P1;SDS_P2;PMS_P1;PMS_P2;Temp;Humidity;BMP_temperature;BMP_pressure;BME280_temperature;BME280_humidity;BME280_pressure;Samples;Min_cycle;Max_cycle;Signal;HPM_P1;HPM_P2
2021/06/19 00:00:34;;;;;;;9.70;8.20;;;25.00;86.60;;;;;;5093679;28;20425;-75
2021/06/19 00:03:00;;;;;;;9.30;8.03;;;25.00;87.10;;;;;;5093864;28;20863;-74
2021/06/19 00:05:27;;;;;;;8.60;7.87;;;24.90;88.10;;;;;;5094152;28;20898;-74
2021/06/19 00:07:52;;;;;;;7.90;7.30;;;24.80;87.80;;;;;;5093948;28;20518;-74
2021/06/19 00:10:19;;;;;;;8.27;7.53;;;24.80;88.30;;;;;;5094172;28;20488;-75
2021/06/19 00:12:47;;;;;;;9.83;9.03;;;24.80;88.50;;;;;;5094201;28;20319;-75
2021/06/19 00:15:15;;;;;;;9.03;8.23;;;24.80;88.90;;;;;;5094023;28;20439;-75
2021/06/19 00:17:41;;;;;;;9.40;8.60;;;24.70;89.20;;;;;;5093974;28;20530;-73
2021/06/19 00:20:13;;;;;;;9.50;8.63;;;24.70;89.40;;;;;;5093569;28;20448;-74
2021/06/19 00:22:39;;;;;;;8.80;8.10;;;24.70;90.00;;;;;;5093415;28;20398;-73
2021/06/19 00:25:06;;;;;;;9.10;8.30;;;24.60;90.00;;;;;;5093620;28;20870;-73
2021/06/19 00:27:31;;;;;;;8.60;8.00;;;24.60;90.20;;;;;;5093562;28;20712;-73
2021/06/19 00:29:57;;;;;;;10.00;8.50;;;24.60;90.40;;;;;;5093730;28;20397;-73
2021/06/19 00:32:22;;;;;;;11.70;8.17;;;24.60;90.50;;;;;;5093342;28;20192;-73
2021/06/19 00:34:48;;;;;;;8.90;8.00;;;24.50;90.70;;;;;;5093458;28;20167;-73
2021/06/19 00:37:13;;;;;;;8.83;8.03;;;24.50;90.90;;;;;;5093505;28;20645;-73
2021/06/19 00:39:39;;;;;;;9.03;8.23;;;24.50;91.00;;;;;;5093174;28;20186;-74
2021/06/19 00:42:04;;;;;;;8.70;8.10;;;24.40;91.10;;;;;;5093537;28;20203;-74
2021/06/19 00:44:30;;;;;;;8.93;8.13;;;24.40;91.30;;;;;;5093511;28;20164;-73
2021/06/19 00:46:57;;;;;;;10.77;8.07;;;24.40;91.40;;;;;;5093270;28;20189;-74
2021/06/19 00:49:24;;;;;;;8.37;7.53;;;24.40;91.60;;;;;;5093361;28;20425;-74
2021/06/19 00:51:50;;;;;;;9.10;8.30;;;24.30;91.80;;;;;;5092591;28;20457;-74
2021/06/19 00:54:16;;;;;;;7.83;7.23;;;24.30;92.00;;;;;;5093222;28;20414;-74
2021/06/19 00:56:42;;;;;;;8.80;8.00;;;24.20;92.20;;;;;;5093146;28;20408;-72
2021/06/19 00:59:09;;;;;;;10.07;9.20;;;24.20;92.30;;;;;;5093368;28;20470;-72
2021/06/19 01:01:36;;;;;;;8.83;7.50;;;24.10;92.50;;;;;;5093899;28;20819;-73
2021/06/19 01:04:03;;;;;;;10.93;9.93;;;24.20;92.70;;;;;;5093495;28;20410;-74
2021/06/19 01:06:29;;;;;;;10.10;9.20;;;24.10;92.90;;;;;;5093310;28;20412;-74
2021/06/19 01:08:54;;;;;;;8.80;8.13;;;24.10;93.10;;;;;;5092545;28;20851;-74
2021/06/19 01:11:23;;;;;;;8.57;7.97;;;24.10;93.30;;;;;;5074963;28;20432;-74
2021/06/19 01:13:50;;;;;;;10.93;8.30;;;24.10;93.40;;;;;;5092074;28;20167;-74
2021/06/19 01:16:18;;;;;;;10.50;8.37;;;24.10;93.60;;;;;;5092901;28;20487;-75
2021/06/19 01:18:44;;;;;;;9.30;8.33;;;24.00;93.80;;;;;;5092760;28;20499;-74
2021/06/19 01:21:17;;;;;;;8.60;7.80;;;24.00;94.40;;;;;;5092565;28;20421;-74
2021/06/19 01:23:44;;;;;;;10.27;8.20;;;24.00;94.20;;;;;;5092756;28;20415;-74
2021/06/19 01:26:39;;;;;;;9.13;8.30;;;24.00;94.30;;;;;;5093484;28;20409;-74
2021/06/19 01:29:04;;;;;;;9.27;8.03;;;24.00;94.50;;;;;;5076357;28;20475;-75
2021/06/19 01:31:32;;;;;;;9.23;8.50;;;24.00;94.50;;;;;;5093210;28;20424;-74
2021/06/19 01:33:58;;;;;;;9.53;8.43;;;23.90;94.80;;;;;;5093472;28;20158;-75
2021/06/19 01:36:25;;;;;;;10.10;9.00;;;23.90;95.00;;;;;;5092469;28;20506;-74
2021/06/19 01:38:54;;;;;;;9.20;8.40;;;23.80;95.10;;;;;;5092065;28;20192;-74
2021/06/19 01:41:25;;;;;;;8.87;7.97;;;23.80;95.30;;;;;;5091806;28;20415;-74
2021/06/19 01:43:57;;;;;;;12.27;9.03;;;23.80;95.50;;;;;;5092156;28;20445;-75
2021/06/19 01:46:23;;;;;;;9.77;8.77;;;23.80;95.70;;;;;;5091886;28;20885;-74
2021/06/19 01:48:48;;;;;;;9.33;8.53;;;23.80;95.90;;;;;;5091957;28;20405;-74
2021/06/19 01:51:14;;;;;;;9.60;8.90;;;23.70;96.10;;;;;;5091746;28;20209;-74
2021/06/19 01:53:41;;;;;;;8.90;8.20;;;23.70;96.20;;;;;;5091906;28;20178;-74
2021/06/19 01:56:08;;;;;;;10.80;7.90;;;23.70;96.50;;;;;;5091597;28;20172;-74
2021/06/19 01:58:34;;;;;;;8.80;8.00;;;23.60;96.60;;;;;;5073555;28;20456;-73
2021/06/19 02:01:02;;;;;;;9.77;8.77;;;23.60;96.80;;;;;;5073365;28;20429;-73
2021/06/19 02:03:27;;;;;;;9.43;8.53;;;23.60;96.90;;;;;;5091621;28;20401;-74
2021/06/19 02:05:53;;;;;;;7.93;7.13;;;23.60;97.00;;;;;;5091730;28;20820;-74
2021/06/19 02:08:19;;;;;;;10.70;9.67;;;23.50;97.30;;;;;;5091597;28;20184;-74
2021/06/19 02:10:45;;;;;;;9.60;8.63;;;23.50;97.60;;;;;;5091517;28;20191;-74
2021/06/19 02:13:11;;;;;;;9.23;8.27;;;23.50;97.70;;;;;;5091545;28;20593;-74
2021/06/19 02:15:38;;;;;;;9.40;8.50;;;23.40;97.80;;;;;;5091605;28;20634;-74
2021/06/19 02:18:04;;;;;;;9.40;8.50;;;23.40;98.00;;;;;;5091225;28;20437;-75
2021/06/19 02:20:29;;;;;;;8.77;7.97;;;23.40;98.30;;;;;;5091196;28;20500;-74
2021/06/19 02:22:55;;;;;;;8.80;8.17;;;23.40;98.40;;;;;;5091130;28;20645;-74
2021/06/19 02:25:26;;;;;;;9.23;8.33;;;23.30;98.60;;;;;;5091045;28;20175;-74
2021/06/19 02:28:00;;;;;;;8.90;8.10;;;23.30;98.70;;;;;;5091114;28;20482;-74
2021/06/19 02:30:29;;;;;;;9.10;8.20;;;23.30;99.00;;;;;;5091199;28;20408;-74
2021/06/19 02:32:55;;;;;;;9.93;8.00;;;23.30;99.20;;;;;;5091159;28;20810;-74
2021/06/19 02:35:23;;;;;;;10.20;9.40;;;23.30;99.20;;;;;;5090932;28;20409;-73
2021/06/19 02:37:49;;;;;;;9.00;8.30;;;23.30;99.40;;;;;;5091032;28;20433;-73
2021/06/19 02:40:15;;;;;;;17.37;10.33;;;23.30;99.60;;;;;;5090919;28;20459;-74
2021/06/19 02:42:41;;;;;;;9.10;8.23;;;23.30;99.70;;;;;;5091095;28;20247;-74
2021/06/19 02:45:12;;;;;;;9.57;8.70;;;23.20;99.80;;;;;;5091101;28;20650;-73
2021/06/19 02:47:39;;;;;;;9.47;8.67;;;23.20;99.90;;;;;;5090975;28;20417;-75
2021/06/19 02:50:06;;;;;;;9.23;8.47;;;23.20;99.90;;;;;;5090998;28;20489;-74
2021/06/19 02:52:31;;;;;;;12.77;8.10;;;23.20;99.90;;;;;;5090524;28;20463;-74
2021/06/19 02:54:57;;;;;;;9.40;8.60;;;23.20;99.90;;;;;;5090959;28;20402;-73
2021/06/19 02:57:22;;;;;;;8.83;8.20;;;23.20;99.90;;;;;;5090720;28;20196;-74
2021/06/19 02:59:48;;;;;;;9.33;8.53;;;23.10;99.90;;;;;;5090866;28;20568;-74
2021/06/19 03:02:13;;;;;;;9.80;9.00;;;23.10;99.90;;;;;;5090824;28;20272;-74
2021/06/19 03:04:39;;;;;;;8.73;8.03;;;23.10;99.90;;;;;;5090884;28;20165;-74
2021/06/19 03:07:04;;;;;;;10.07;9.07;;;23.10;99.90;;;;;;5090823;28;20171;-75
2021/06/19 03:09:30;;;;;;;10.20;9.30;;;23.10;99.90;;;;;;5091117;28;20190;-73
2021/06/19 03:11:55;;;;;;;10.17;9.43;;;23.00;99.90;;;;;;5091055;28;20203;-74
2021/06/19 03:14:21;;;;;;;9.30;8.60;;;23.00;99.90;;;;;;5072696;28;20182;-75
2021/06/19 03:16:46;;;;;;;9.20;8.40;;;23.10;99.90;;;;;;5090703;28;20169;-74
2021/06/19 03:19:11;;;;;;;10.53;9.63;;;23.10;99.90;;;;;;5090668;28;20291;-74
2021/06/19 03:21:38;;;;;;;9.13;8.33;;;23.00;99.90;;;;;;5090396;28;20190;-75
2021/06/19 03:24:04;;;;;;;10.60;9.60;;;23.00;99.90;;;;;;5090671;28;20241;-72
2021/06/19 03:26:29;;;;;;;9.57;8.67;;;23.00;99.90;;;;;;5090507;28;20502;-74
2021/06/19 03:28:55;;;;;;;10.90;9.90;;;23.00;99.90;;;;;;5090606;28;20165;-74
2021/06/19 03:31:20;;;;;;;9.37;8.40;;;23.00;99.90;;;;;;5090361;28;20208;-74
2021/06/19 03:33:46;;;;;;;9.50;8.60;;;23.00;99.90;;;;;;5090597;28;20640;-74
2021/06/19 03:36:11;;;;;;;9.07;8.37;;;23.00;99.90;;;;;;5091951;28;20268;-74
2021/06/19 03:38:37;;;;;;;9.53;8.70;;;23.00;99.90;;;;;;5094262;28;20284;-76
2021/06/19 03:41:02;;;;;;;9.70;8.90;;;23.00;99.90;;;;;;5094173;28;20665;-74
2021/06/19 03:43:28;;;;;;;9.97;8.77;;;23.10;99.90;;;;;;5094441;28;20175;-74
2021/06/19 03:45:53;;;;;;;11.00;8.83;;;23.10;99.90;;;;;;5094344;28;20160;-75
2021/06/19 03:48:19;;;;;;;10.13;9.33;;;23.10;99.90;;;;;;5094020;28;20212;-73
2021/06/19 03:50:44;;;;;;;9.20;8.40;;;23.10;99.90;;;;;;5075836;28;20627;-75
2021/06/19 03:53:10;;;;;;;9.27;8.57;;;23.20;99.90;;;;;;5094157;28;20567;-73
2021/06/19 03:55:36;;;;;;;9.40;8.50;;;23.30;99.90;;;;;;5094318;28;20179;-73
2021/06/19 03:58:01;;;;;;;9.63;8.73;;;23.30;99.90;;;;;;5093899;28;20217;-73
2021/06/19 04:00:29;;;;;;;9.67;8.77;;;23.30;99.90;;;;;;5093966;28;20170;-75
2021/06/19 04:02:55;;;;;;;9.23;8.50;;;23.40;99.90;;;;;;5094438;28;20248;-73
2021/06/19 04:05:21;;;;;;;9.83;9.00;;;23.50;99.90;;;;;;5093835;28;20457;-73
2021/06/19 04:07:46;;;;;;;9.87;8.87;;;23.50;99.90;;;;;;5093981;28;20896;-73
2021/06/19 04:10:13;;;;;;;9.50;8.80;;;23.60;99.90;;;;;;5093778;28;20660;-74
2021/06/19 04:12:39;;;;;;;9.77;8.97;;;23.70;99.90;;;;;;5093728;28;20167;-73
2021/06/19 04:15:07;;;;;;;10.60;9.20;;;23.90;99.90;;;;;;5093838;28;21194;-74
2021/06/19 04:17:33;;;;;;;9.73;9.00;;;24.60;99.90;;;;;;5093633;28;20463;-73
2021/06/19 04:19:59;;;;;;;9.07;8.30;;;25.60;99.90;;;;;;5093658;28;20453;-74
2021/06/19 04:22:24;;;;;;;9.10;8.40;;;26.40;98.20;;;;;;5093724;28;20422;-74
2021/06/19 04:24:50;;;;;;;9.47;8.60;;;26.90;96.90;;;;;;5094123;28;20164;-74
2021/06/19 04:27:18;;;;;;;9.30;8.50;;;27.50;95.70;;;;;;5094488;28;20282;-75
2021/06/19 04:29:44;;;;;;;9.57;8.80;;;27.70;94.80;;;;;;5093936;28;20179;-75
2021/06/19 04:32:11;;;;;;;8.67;7.97;;;28.20;94.10;;;;;;5093800;28;20491;-74
2021/06/19 04:34:39;;;;;;;8.13;7.53;;;28.20;93.80;;;;;;5094044;28;20410;-75
2021/06/19 04:37:07;;;;;;;8.93;8.03;;;28.00;94.00;;;;;;5093916;28;20831;-75
2021/06/19 04:39:32;;;;;;;8.47;7.80;;;28.30;93.60;;;;;;5093402;28;20820;-73
2021/06/19 04:42:04;;;;;;;9.23;8.53;;;28.60;92.60;;;;;;5093041;28;20428;-74
2021/06/19 04:46:56;;;;;;;8.90;8.20;;;28.00;93.10;;;;;;5092234;28;20892;-73
2021/06/19 04:49:21;;;;;;;10.17;8.10;;;28.20;92.90;;;;;;5092792;28;20183;-74
2021/06/19 04:51:47;;;;;;;9.00;8.30;;;28.30;92.60;;;;;;5092950;28;20196;-75
2021/06/19 04:54:13;;;;;;;9.13;8.43;;;28.20;92.70;;;;;;5093117;28;20249;-74
2021/06/19 04:56:40;;;;;;;9.23;8.43;;;28.30;92.80;;;;;;5092877;28;20403;-74
2021/06/19 04:59:06;;;;;;;8.67;8.07;;;28.10;92.70;;;;;;5092884;28;20189;-74
2021/06/19 05:01:31;;;;;;;9.07;8.27;;;27.50;93.80;;;;;;5092494;28;20923;-74
2021/06/19 05:03:57;;;;;;;9.37;8.57;;;27.10;94.40;;;;;;5092846;28;20161;-74
2021/06/19 05:06:22;;;;;;;8.40;7.70;;;26.90;94.60;;;;;;5092792;28;20166;-74
2021/06/19 05:08:48;;;;;;;8.77;8.03;;;27.90;93.60;;;;;;5092785;28;20177;-75
2021/06/19 05:11:13;;;;;;;9.30;8.63;;;28.50;92.30;;;;;;5092758;28;20189;-74
2021/06/19 05:13:39;;;;;;;8.27;7.60;;;28.40;92.00;;;;;;5092610;28;20173;-74
2021/06/19 05:16:04;;;;;;;9.17;8.30;;;29.10;91.60;;;;;;5092405;28;20543;-74
2021/06/19 05:18:30;;;;;;;9.20;8.23;;;29.40;91.00;;;;;;5092348;28;20257;-74
2021/06/19 05:20:56;;;;;;;8.53;7.77;;;28.40;92.10;;;;;;5092490;28;20645;-75
2021/06/19 05:23:21;;;;;;;8.33;7.63;;;28.60;92.10;;;;;;5093164;28;20755;-74
2021/06/19 05:25:47;;;;;;;9.00;8.33;;;29.40;91.00;;;;;;5093631;28;20193;-74
2021/06/19 05:28:13;;;;;;;9.23;8.43;;;29.20;91.20;;;;;;5092670;28;20653;-74
2021/06/19 05:30:38;;;;;;;7.63;6.93;;;28.30;92.30;;;;;;5092155;28;20177;-74
2021/06/19 05:33:04;;;;;;;9.53;8.93;;;29.30;91.30;;;;;;5092175;28;20165;-74
2021/06/19 05:35:30;;;;;;;9.70;9.00;;;29.00;91.30;;;;;;5092140;28;20295;-75
2021/06/19 05:37:55;;;;;;;9.13;8.43;;;28.80;91.80;;;;;;5091954;28;20404;-74
2021/06/19 05:40:21;;;;;;;9.70;8.57;;;29.20;91.40;;;;;;5091936;28;20572;-74
2021/06/19 05:42:47;;;;;;;9.90;8.80;;;28.60;91.80;;;;;;5092309;28;20190;-75
2021/06/19 05:45:12;;;;;;;9.50;8.70;;;29.00;91.20;;;;;;5091974;28;20167;-74
2021/06/19 05:47:38;;;;;;;8.87;8.13;;;28.90;91.20;;;;;;5092055;28;20162;-74
2021/06/19 05:50:05;;;;;;;9.27;8.50;;;29.10;91.70;;;;;;5073807;28;20212;-74
2021/06/19 05:52:30;;;;;;;9.67;8.77;;;29.50;90.20;;;;;;5091537;28;20270;-74
2021/06/19 05:54:56;;;;;;;8.40;7.80;;;29.60;90.70;;;;;;5091850;28;20907;-74
2021/06/19 05:57:21;;;;;;;9.93;9.03;;;29.40;90.40;;;;;;5091789;28;20166;-74
2021/06/19 05:59:47;;;;;;;8.17;7.50;;;29.80;90.10;;;;;;5091136;28;20189;-74
2021/06/19 06:02:12;;;;;;;9.80;8.50;;;30.40;89.40;;;;;;5091614;28;20190;-74
2021/06/19 06:04:37;;;;;;;8.53;7.80;;;30.50;88.00;;;;;;5092203;28;20169;-74
2021/06/19 06:07:03;;;;;;;7.87;7.27;;;30.60;88.30;;;;;;5091929;28;20165;-73
2021/06/19 06:09:29;;;;;;;8.30;7.70;;;31.20;86.50;;;;;;5091693;28;20647;-74
2021/06/19 06:11:55;;;;;;;8.53;7.83;;;30.80;87.10;;;;;;5091484;28;20296;-74
2021/06/19 06:14:21;;;;;;;8.40;7.70;;;31.00;86.10;;;;;;5091543;28;20408;-73
2021/06/19 06:16:47;;;;;;;8.80;7.90;;;30.80;87.90;;;;;;5091433;28;20904;-73
2021/06/19 06:19:14;;;;;;;8.00;7.40;;;30.30;89.80;;;;;;5091458;28;20451;-73
2021/06/19 06:21:40;;;;;;;8.43;7.83;;;30.50;87.50;;;;;;5091270;28;20600;-73
2021/06/19 06:24:06;;;;;;;8.80;8.10;;;30.40;88.70;;;;;;5091488;28;20519;-74
2021/06/19 06:26:31;;;;;;;8.40;7.70;;;30.80;86.50;;;;;;5091273;28;20219;-72
2021/06/19 06:28:57;;;;;;;9.00;8.20;;;30.60;86.50;;;;;;5091193;28;20215;-73
2021/06/19 06:31:23;;;;;;;7.67;7.17;;;30.50;87.10;;;;;;5091200;28;20554;-73
2021/06/19 06:33:49;;;;;;;8.83;8.10;;;30.60;89.20;;;;;;5091644;28;20165;-73
2021/06/19 06:36:14;;;;;;;8.43;7.83;;;30.90;84.40;;;;;;5091353;28;20482;-73
2021/06/19 06:38:40;;;;;;;9.50;7.67;;;31.00;83.70;;;;;;5091314;28;20686;-73
2021/06/19 06:41:05;;;;;;;7.90;7.10;;;31.20;84.80;;;;;;5091343;28;20246;-73
2021/06/19 06:43:31;;;;;;;10.17;7.60;;;31.30;84.40;;;;;;5091064;28;20253;-73
2021/06/19 06:45:56;;;;;;;7.33;6.73;;;30.90;86.80;;;;;;5091230;28;20572;-74
2021/06/19 06:48:22;;;;;;;7.40;6.70;;;31.60;86.10;;;;;;5091048;28;20161;-73
2021/06/19 06:50:48;;;;;;;8.03;7.37;;;31.50;85.90;;;;;;5090953;28;20193;-74
2021/06/19 06:53:13;;;;;;;7.83;7.13;;;31.60;84.30;;;;;;5091226;28;20240;-74
2021/06/19 06:55:39;;;;;;;10.20;7.60;;;32.10;82.80;;;;;;5090978;28;20638;-73
2021/06/19 06:58:05;;;;;;;14.17;7.23;;;32.30;81.80;;;;;;5073180;28;20169;-73
2021/06/19 07:00:30;;;;;;;8.00;7.40;;;32.70;81.20;;;;;;5090978;28;20281;-73
2021/06/19 07:02:56;;;;;;;7.13;6.43;;;32.30;80.70;;;;;;5090956;28;20165;-73
2021/06/19 07:05:21;;;;;;;6.87;6.37;;;32.60;80.60;;;;;;5091007;28;20633;-74
2021/06/19 07:07:46;;;;;;;7.37;6.50;;;32.20;82.90;;;;;;5072756;28;20177;-74
2021/06/19 07:10:13;;;;;;;6.80;6.20;;;33.00;79.20;;;;;;5090950;28;20173;-73
2021/06/19 07:12:42;;;;;;;6.50;6.10;;;32.20;82.00;;;;;;5094690;28;20169;-73
2021/06/19 07:15:10;;;;;;;5.63;5.13;;;32.10;80.60;;;;;;5096519;28;20399;-73
2021/06/19 07:17:36;;;;;;;6.40;5.83;;;32.60;79.80;;;;;;5095546;28;20442;-73
2021/06/19 07:20:03;;;;;;;6.57;5.97;;;34.00;76.90;;;;;;5095145;28;20502;-73
2021/06/19 07:22:28;;;;;;;4.93;4.63;;;33.30;78.20;;;;;;5095414;28;20213;-73
2021/06/19 07:24:54;;;;;;;6.67;6.03;;;33.90;74.50;;;;;;5095576;28;20410;-74
2021/06/19 07:27:19;;;;;;;7.40;6.80;;;33.00;77.40;;;;;;5096791;28;20185;-73
2021/06/19 07:29:45;;;;;;;6.40;5.80;;;33.80;78.60;;;;;;5097044;28;20246;-74
2021/06/19 07:32:10;;;;;;;6.40;6.00;;;33.50;74.50;;;;;;5097902;28;20189;-74
2021/06/19 07:34:36;;;;;;;6.67;6.07;;;34.20;74.80;;;;;;5098891;28;20157;-74
2021/06/19 07:37:01;;;;;;;6.30;5.70;;;33.50;77.30;;;;;;5098526;28;20184;-74
2021/06/19 07:39:27;;;;;;;11.03;7.03;;;34.40;75.40;;;;;;5098334;28;20193;-74
2021/06/19 07:41:52;;;;;;;9.80;7.07;;;35.20;71.90;;;;;;5094620;28;20234;-74
2021/06/19 07:44:18;;;;;;;7.87;5.80;;;35.40;71.10;;;;;;5094975;28;20162;-75
2021/06/19 07:46:46;;;;;;;7.70;6.93;;;36.50;67.20;;;;;;5094432;28;20170;-74
2021/06/19 07:49:12;;;;;;;7.33;6.47;;;36.80;65.30;;;;;;5094845;28;20224;-75
2021/06/19 07:51:38;;;;;;;6.97;6.33;;;36.20;66.60;;;;;;5094439;28;20970;-73
2021/06/19 07:54:04;;;;;;;6.37;5.73;;;35.90;70.10;;;;;;5094475;28;20407;-74
2021/06/19 07:56:29;;;;;;;6.10;5.70;;;36.90;64.20;;;;;;5094122;28;20227;-74
2021/06/19 07:58:55;;;;;;;6.37;5.77;;;35.70;71.20;;;;;;5094586;28;20200;-74
2021/06/19 08:01:20;;;;;;;6.30;5.70;;;36.40;64.60;;;;;;5094638;28;20230;-74
2021/06/19 08:03:46;;;;;;;5.80;5.17;;;36.60;65.20;;;;;;5094046;28;20642;-75
2021/06/19 08:06:11;;;;;;;6.00;5.60;;;37.00;62.60;;;;;;5094029;28;20219;-74
2021/06/19 08:08:37;;;;;;;11.30;6.17;;;37.90;61.80;;;;;;5094134;28;20669;-74
2021/06/19 08:11:02;;;;;;;6.47;5.87;;;36.50;63.60;;;;;;5093769;28;20193;-74
2021/06/19 08:13:28;;;;;;;7.07;5.87;;;36.90;62.70;;;;;;5093950;28;20558;-74
2021/06/19 08:15:56;;;;;;;6.83;6.33;;;37.10;65.00;;;;;;5093859;28;20201;-74
2021/06/19 08:18:22;;;;;;;7.30;6.10;;;37.50;62.30;;;;;;5093765;28;20178;-74
2021/06/19 08:20:48;;;;;;;6.03;5.53;;;37.10;63.40;;;;;;5093518;28;20488;-74
2021/06/19 08:23:13;;;;;;;5.60;5.20;;;36.10;64.70;;;;;;5093487;28;20189;-74
2021/06/19 08:25:39;;;;;;;5.73;5.23;;;34.90;67.50;;;;;;5093583;28;20272;-74
2021/06/19 08:28:04;;;;;;;7.60;6.17;;;36.70;65.10;;;;;;5093473;28;20179;-74
2021/06/19 08:30:30;;;;;;;6.33;5.80;;;36.70;63.10;;;;;;5093468;28;20193;-74
2021/06/19 08:32:55;;;;;;;6.83;5.90;;;36.60;63.70;;;;;;5093443;28;20539;-75
2021/06/19 08:35:21;;;;;;;7.53;5.50;;;38.30;59.80;;;;;;5093691;28;20176;-74
2021/06/19 08:37:46;;;;;;;13.23;6.20;;;37.50;60.80;;;;;;5093859;28;20705;-73
2021/06/19 08:40:12;;;;;;;7.80;5.47;;;37.20;59.80;;;;;;5093132;28;20199;-73
2021/06/19 08:42:38;;;;;;;6.00;5.60;;;37.40;60.00;;;;;;5093383;28;20162;-74
2021/06/19 08:45:04;;;;;;;6.40;5.90;;;36.70;62.90;;;;;;5093319;28;20222;-74
2021/06/19 08:47:35;;;;;;;8.17;6.07;;;36.60;65.10;;;;;;5093508;28;20165;-73
2021/06/19 08:50:07;;;;;;;8.60;6.13;;;35.60;65.80;;;;;;5093570;28;20545;-73
2021/06/19 08:52:34;;;;;;;6.57;5.80;;;35.20;66.30;;;;;;5092819;28;20435;-73
2021/06/19 08:55:00;;;;;;;6.80;6.20;;;35.00;66.20;;;;;;5093033;28;20414;-73
2021/06/19 08:57:25;;;;;;;6.70;6.10;;;34.70;66.50;;;;;;5092938;28;20408;-74
2021/06/19 08:59:52;;;;;;;6.13;5.63;;;34.80;65.00;;;;;;5092717;28;20197;-73
2021/06/19 09:02:18;;;;;;;6.50;5.90;;;36.00;63.10;;;;;;5093003;28;20272;-73
2021/06/19 09:05:07;;;;;;;6.23;5.60;;;35.60;64.40;;;;;;5093242;28;20844;-74
2021/06/19 09:07:36;;;;;;;5.60;5.10;;;36.80;60.10;;;;;;5093006;28;20185;-74
2021/06/19 09:10:34;;;;;;;5.00;4.70;;;37.00;59.30;;;;;;5092924;28;20533;-74
2021/06/19 09:13:06;;;;;;;5.20;4.70;;;37.20;63.60;;;;;;5092857;28;20996;-74
2021/06/19 09:15:34;;;;;;;5.43;4.90;;;37.30;60.50;;;;;;5092787;28;20391;-73
2021/06/19 09:18:06;;;;;;;5.40;4.97;;;37.40;59.80;;;;;;5092616;28;20395;-74
2021/06/19 09:21:05;;;;;;;5.33;4.83;;;36.90;59.40;;;;;;5092804;28;20538;-75
2021/06/19 09:23:42;;;;;;;4.60;4.30;;;37.10;58.70;;;;;;5092864;28;20400;-74
2021/06/19 09:26:18;;;;;;;5.60;5.10;;;37.50;56.90;;;;;;5092324;28;20412;-74
2021/06/19 09:28:53;;;;;;;5.07;4.30;;;37.90;56.80;;;;;;5092490;28;20411;-74
2021/06/19 09:31:43;;;;;;;5.03;4.73;;;37.00;57.50;;;;;;5092276;28;20430;-73
2021/06/19 09:34:11;;;;;;;5.30;4.90;;;37.10;57.70;;;;;;5091811;28;20471;-74
2021/06/19 09:36:43;;;;;;;4.97;4.67;;;37.00;57.30;;;;;;5092507;28;20912;-74
2021/06/19 09:39:10;;;;;;;4.40;4.10;;;37.50;57.00;;;;;;5074488;28;20459;-74
2021/06/19 09:41:48;;;;;;;4.97;4.60;;;36.50;56.50;;;;;;5092499;28;20481;-75
2021/06/19 09:44:13;;;;;;;4.77;4.47;;;38.10;52.90;;;;;;5092310;28;20449;-74
2021/06/19 09:46:39;;;;;;;4.93;4.53;;;38.00;53.30;;;;;;5092195;28;20395;-74
2021/06/19 09:49:16;;;;;;;4.13;3.83;;;37.70;54.00;;;;;;5091935;28;20268;-74
2021/06/19 09:51:51;;;;;;;4.70;4.30;;;36.60;52.70;;;;;;5091815;28;20213;-74
2021/06/19 09:54:19;;;;;;;4.83;4.30;;;37.20;55.60;;;;;;5091979;28;20427;-73
2021/06/19 09:56:53;;;;;;;5.77;5.27;;;37.10;55.20;;;;;;5091866;28;20404;-74
2021/06/19 09:59:28;;;;;;;6.57;4.60;;;36.50;54.20;;;;;;5073488;28;20620;-74
2021/06/19 10:01:55;;;;;;;5.30;4.40;;;36.80;54.20;;;;;;5091472;28;20469;-73
2021/06/19 10:04:23;;;;;;;3.70;3.50;;;38.20;51.00;;;;;;5091711;28;20407;-75
2021/06/19 10:06:50;;;;;;;5.53;4.63;;;37.40;53.60;;;;;;5091525;28;20431;-74
2021/06/19 10:09:15;;;;;;;5.37;5.07;;;36.30;54.70;;;;;;5091544;28;20416;-74
2021/06/19 10:11:48;;;;;;;4.90;4.60;;;35.90;53.00;;;;;;5091335;28;20446;-74
2021/06/19 10:14:18;;;;;;;4.57;4.17;;;35.60;53.50;;;;;;5091912;28;20178;-74
2021/06/19 10:16:49;;;;;;;5.37;4.97;;;36.70;54.40;;;;;;5091350;28;20904;-74
2021/06/19 10:19:21;;;;;;;5.53;5.23;;;36.20;54.20;;;;;;5091384;28;20487;-74
2021/06/19 10:21:50;;;;;;;6.03;5.63;;;36.80;54.10;;;;;;5091331;28;20458;-74
2021/06/19 10:24:16;;;;;;;6.17;5.30;;;37.30;52.20;;;;;;5091264;28;20406;-74
2021/06/19 10:26:42;;;;;;;5.07;4.57;;;36.90;53.40;;;;;;5091274;28;20396;-74
2021/06/19 10:29:08;;;;;;;4.83;4.53;;;37.20;53.10;;;;;;5091627;28;20173;-74
2021/06/19 10:31:43;;;;;;;6.03;5.50;;;36.60;53.20;;;;;;5091772;28;20193;-74
2021/06/19 10:34:19;;;;;;;5.93;5.43;;;35.90;53.90;;;;;;5091439;28;20410;-74
2021/06/19 10:36:44;;;;;;;6.00;5.50;;;36.10;54.70;;;;;;5091494;28;20403;-74
2021/06/19 10:39:11;;;;;;;6.70;4.90;;;36.30;52.30;;;;;;5073661;28;20773;-74
2021/06/19 10:41:42;;;;;;;5.60;5.10;;;35.80;53.40;;;;;;5091272;28;20188;-74
2021/06/19 10:44:08;;;;;;;5.83;5.43;;;36.30;54.80;;;;;;5091180;28;20739;-74
2021/06/19 10:46:38;;;;;;;5.53;5.17;;;35.80;53.50;;;;;;5090970;28;20403;-74
2021/06/19 10:49:23;;;;;;;5.53;5.00;;;35.80;55.40;;;;;;5091258;28;20180;-74
2021/06/19 10:51:50;;;;;;;6.13;5.17;;;36.10;53.20;;;;;;5091066;28;20520;-74
2021/06/19 10:54:18;;;;;;;6.30;5.53;;;36.00;53.60;;;;;;5091346;28;20486;-74
2021/06/19 10:56:57;;;;;;;5.60;5.10;;;36.10;54.10;;;;;;5091242;28;20422;-74
2021/06/19 10:59:25;;;;;;;5.47;4.97;;;36.10;54.20;;;;;;5091005;28;20458;-74
2021/06/19 11:01:51;;;;;;;5.60;5.20;;;36.10;52.60;;;;;;5072690;28;20469;-74
2021/06/19 11:04:41;;;;;;;5.20;4.90;;;36.10;52.50;;;;;;5090903;28;20461;-74
2021/06/19 11:07:16;;;;;;;5.90;5.50;;;36.00;53.10;;;;;;5091069;28;20796;-74
2021/06/19 11:09:50;;;;;;;5.43;5.13;;;36.20;54.00;;;;;;5091090;28;20814;-75
2021/06/19 11:12:18;;;;;;;6.80;5.00;;;35.80;53.70;;;;;;5090812;28;20776;-74
2021/06/19 11:14:45;;;;;;;6.03;5.43;;;36.10;53.60;;;;;;5091166;28;20495;-74
2021/06/19 11:17:14;;;;;;;5.20;4.90;;;36.40;53.60;;;;;;5072645;28;20443;-74
2021/06/19 11:19:48;;;;;;;5.00;3.87;;;36.60;51.50;;;;;;5090756;28;20980;-74
2021/06/19 11:22:24;;;;;;;7.07;4.40;;;36.40;52.60;;;;;;5090856;28;20781;-74
2021/06/19 11:25:22;;;;;;;5.20;4.80;;;36.30;53.20;;;;;;5090982;28;20421;-74
2021/06/19 11:28:10;;;;;;;4.90;4.60;;;35.70;53.40;;;;;;5090858;28;20911;-74
2021/06/19 11:30:36;;;;;;;9.50;4.97;;;35.50;55.10;;;;;;5090891;28;20427;-73
2021/06/19 11:33:17;;;;;;;5.27;4.97;;;35.60;55.00;;;;;;5090616;28;20399;-73
2021/06/19 11:35:44;;;;;;;5.67;5.13;;;35.40;54.60;;;;;;5091191;28;20173;-74
2021/06/19 11:38:10;;;;;;;5.23;4.80;;;35.60;55.30;;;;;;5090688;28;20968;-73
2021/06/19 11:40:36;;;;;;;5.23;4.87;;;35.70;55.60;;;;;;5090898;28;20482;-74
2021/06/19 11:43:03;;;;;;;5.90;5.40;;;35.60;54.60;;;;;;5091018;28;20845;-75
2021/06/19 11:45:30;;;;;;;5.80;5.40;;;35.60;54.80;;;;;;5090754;28;20407;-74
2021/06/19 11:48:10;;;;;;;7.23;6.53;;;35.60;55.50;;;;;;5090654;28;20399;-73
2021/06/19 11:50:42;;;;;;;6.80;5.70;;;35.70;55.80;;;;;;5090485;28;20466;-73
2021/06/19 11:53:26;;;;;;;6.87;6.37;;;35.90;55.50;;;;;;5090565;28;20409;-73
2021/06/19 11:56:05;;;;;;;11.37;6.93;;;35.90;55.50;;;;;;5090675;28;20404;-74
2021/06/19 11:58:52;;;;;;;6.47;5.90;;;36.10;55.80;;;;;;5093797;28;20742;-74
2021/06/19 12:01:20;;;;;;;6.20;5.53;;;35.80;54.00;;;;;;5093806;28;21041;-74
2021/06/19 12:03:47;;;;;;;6.17;5.70;;;35.50;54.60;;;;;;5094010;28;20400;-74
2021/06/19 12:06:13;;;;;;;5.90;5.33;;;35.30;55.00;;;;;;5094156;28;20404;-73
2021/06/19 12:08:39;;;;;;;7.03;6.27;;;35.60;55.60;;;;;;5093914;28;20403;-74
2021/06/19 12:11:05;;;;;;;6.90;6.30;;;35.30;55.60;;;;;;5094073;28;20656;-73
2021/06/19 12:13:38;;;;;;;6.90;6.40;;;35.20;55.80;;;;;;5094135;28;20464;-73
2021/06/19 12:16:07;;;;;;;6.40;5.80;;;35.20;55.90;;;;;;5093933;28;20258;-74
2021/06/19 12:18:32;;;;;;;6.20;5.80;;;35.10;55.90;;;;;;5093706;28;20521;-74
2021/06/19 12:21:06;;;;;;;6.63;6.20;;;34.90;56.40;;;;;;5093637;28;20915;-74
2021/06/19 12:23:37;;;;;;;6.73;6.13;;;35.20;56.20;;;;;;5093915;28;20170;-74
2021/06/19 12:26:05;;;;;;;8.10;7.10;;;34.90;56.70;;;;;;5094118;28;20434;-73
2021/06/19 12:28:31;;;;;;;5.80;5.50;;;35.00;56.80;;;;;;5094013;28;20404;-74
2021/06/19 12:30:57;;;;;;;6.30;5.90;;;35.00;56.80;;;;;;5094331;28;20761;-74
2021/06/19 12:33:27;;;;;;;5.73;5.37;;;35.40;55.60;;;;;;5094187;28;20383;-73
2021/06/19 12:35:54;;;;;;;6.80;6.30;;;35.60;55.70;;;;;;5094022;28;20789;-73
2021/06/19 12:38:20;;;;;;;6.07;5.67;;;35.70;56.30;;;;;;5093316;28;20933;-72
2021/06/19 12:40:46;;;;;;;6.20;5.73;;;35.70;56.20;;;;;;5075234;28;20572;-74
2021/06/19 12:43:12;;;;;;;7.33;6.33;;;36.30;55.90;;;;;;5093218;28;20494;-73
2021/06/19 12:45:44;;;;;;;5.70;5.33;;;36.50;55.40;;;;;;5093407;28;20307;-73
2021/06/19 12:48:35;;;;;;;6.27;5.77;;;36.50;55.70;;;;;;5092998;28;20521;-74
2021/06/19 12:51:02;;;;;;;6.40;5.80;;;36.10;56.40;;;;;;5093224;28;20494;-73